NFFA weather

Ba Airport
Western, Fiji

Public forecast

Using degrees Celsius for public forecast. Weather courtesy of forecast.io.

METAR (pilot weather report)

Closest report is Nadi International Airport, 19.0 nm (35.2 km) SW. Retrieved 2019/07/15 19:00 UTC (33 minutes ago):

NFFN 151900Z 09005KT 9999 SCT030 SCT050 20/19 Q1011 NOSIG

TAF (pilot weather forecast)

Closest forecast is Nadi International Airport, 19.0 nm (35.2 km) SW. Retrieved 2019/07/15 18:00 UTC (2 hours ago):

TAF NFFN 151713Z 1518/1618 09005KT 9999 FEW030 BECMG 1522/1524 28010KT BECMG 1604/1606 10007KT